Latest Weather Observations for Cobar

IDN60801

Issued at 5:03 pm EST Sunday 31 July 2016 (issued every 30 minutes, with the page automatically refreshed every 10 minutes)

About weather observations | Map of weather stations | Latest weather observations for NSW | Other Formats
Station Details ID: 048027 Name: COBAR MO Lat: -31.48 Lon: 145.83 Height: 260.0 m
Data from the previous 72 hours. | See also: Recent months at Cobar
Date/Time
EST
Temp
°C
App
Temp
°C
Dew
Point
°C
Rel
Hum
%
Delta-T
°C
Wind Press
QNH
hPa
Press
MSL
hPa
Rain since
9am
mm
Dir  Spd
km/h
Gust
km/h
Spd
kts
Gust
kts
31/05:00pm 17.2 15.3 4.7 43 6.0 W 4 6 2 3 1018.0 1018.2 0.0
31/04:30pm 18.1 16.4 3.8 38 6.8 WSW 2 9 1 5 1017.8 1018.0 0.0
31/04:00pm 18.5 16.4 3.8 37 7.0 WSW 4 7 2 4 1017.9 1018.1 0.0
31/03:30pm 18.6 16.0 4.0 38 7.0 NW 7 11 4 6 1018.1 1018.3 0.0
31/03:00pm 18.7 16.3 5.3 41 6.6 WNW 7 11 4 6 1018.2 1018.4 0.0
31/02:30pm 18.6 15.9 3.7 37 7.1 NW 7 11 4 6 1018.3 1018.5 0.0
31/02:00pm 18.2 15.5 5.4 43 6.3 WNW 9 13 5 7 1018.2 1018.4 0.0
31/01:30pm 17.7 15.4 5.5 44 6.0 W 7 13 4 7 1018.5 1018.7 0.0
31/01:00pm 17.7 15.2 6.5 48 5.6 NW 9 13 5 7 1019.1 1019.3 0.0
31/12:30pm 17.3 14.7 5.9 47 5.6 NW 9 15 5 8 1019.1 1019.3 0.0
31/12:00pm 16.9 14.4 6.4 50 5.2 NW 9 15 5 8 1019.8 1020.1 0.0
31/11:30am 17.0 14.7 7.6 54 4.8 NW 9 15 5 8 1020.4 1020.6 0.0
31/11:00am 15.8 13.0 7.0 56 4.4 N 11 17 6 9 1020.4 1020.6 0.0
31/10:30am 14.8 11.7 7.1 60 3.8 NNW 13 20 7 11 1020.6 1020.8 0.0
31/10:00am 14.2 11.5 7.3 63 3.4 NNW 11 19 6 10 1021.1 1021.3 0.0
31/09:30am 12.3 9.5 6.9 69 2.6 NNW 11 17 6 9 1021.3 1021.5 0.0
31/09:00am 10.5 7.7 6.9 78 1.7 N 11 15 6 8 1021.1 1021.3 0.0
31/08:30am 8.7 5.3 6.1 84 1.2 N 13 15 7 8 1020.6 1020.8 0.0
31/08:00am 7.4 3.6 5.6 88 0.8 NNE 15 19 8 10 1020.4 1020.6 0.0
31/07:30am 6.3 2.7 5.2 93 0.5 N 13 15 7 8 1020.1 1020.4 0.0
31/07:00am 5.6 2.4 4.9 95 0.3 NNE 11 13 6 7 1019.5 1019.8 0.0
31/06:30am 5.3 2.4 4.8 97 0.2 NNE 9 11 5 6 1019.1 1019.3 0.0
31/06:00am 5.9 3.1 5.2 95 0.3 NNE 9 13 5 7 1018.8 1019.0 0.0
31/05:30am 6.4 2.5 5.3 93 0.5 NNE 15 19 8 10 1018.3 1018.5 0.0
31/05:00am 5.5 2.2 4.8 95 0.3 NNE 11 11 6 6 1018.6 1018.8 0.0
31/04:30am 6.6 3.8 5.3 91 0.6 NNE 9 13 5 7 1018.9 1019.1 0.0
31/04:00am 6.5 2.6 5.2 91 0.6 NNE 15 17 8 9 1018.7 1018.9 0.0
31/03:30am 6.7 3.1 5.1 89 0.7 NNE 13 13 7 7 1019.1 1019.3 0.0
31/03:00am 7.2 4.1 5.7 90 0.7 NNE 11 13 6 7 1019.6 1019.9 0.0
31/02:30am 7.7 5.0 5.7 87 0.9 NNE 9 11 5 6 1019.7 1020.0 0.0
31/02:00am 7.9 4.9 5.9 87 0.9 NNE 11 13 6 7 1019.9 1020.2 0.0
31/01:30am 7.9 4.9 5.9 87 0.9 NNE 11 13 6 7 1020.1 1020.4 0.0
31/01:00am 7.6 5.0 6.1 90 0.7 NNE 9 11 5 6 1020.5 1020.7 0.0
31/12:30am 7.9 5.7 6.2 89 0.8 NNE 7 11 4 6 1020.5 1020.7 0.0
31/12:00am 8.0 5.8 6.3 89 0.8 E 7 9 4 5 1020.6 1020.8 0.0
 
Date/Time
EST
Temp
°C
App
Temp
°C
Dew
Point
°C
Rel
Hum
%
Delta-T
°C
Wind Press
QNH
hPa
Press
MSL
hPa
Rain since
9am
mm
Dir  Spd
km/h
Gust
km/h
Spd
kts
Gust
kts
30/11:30pm 7.9 5.9 6.2 89 0.8 E 6 9 3 5 1020.6 1020.8 0.0
30/11:29pm 7.9 5.9 6.2 89 0.8 ESE 6 9 3 5 1020.6 1020.8 0.0
30/11:16pm 7.9 7.0 6.2 89 0.8 CALM 0 0 0 0 1020.7 1020.9 0.0
30/11:00pm 8.3 6.0 5.9 85 1.1 ENE 7 9 4 5 1020.5 1020.7 0.0
30/10:30pm 7.8 4.4 5.8 87 0.9 NE 13 13 7 7 1020.1 1020.4 0.0
30/10:00pm 7.9 4.4 5.5 85 1.1 NNE 13 15 7 8 1020.1 1020.4 0.0
30/09:30pm 7.9 4.9 5.9 87 0.9 NE 11 13 6 7 1020.7 1020.9 0.0
30/09:00pm 9.2 7.2 6.4 83 1.3 SSE 6 7 3 4 1021.1 1021.3 0.0
30/08:30pm 10.0 8.1 6.8 80 1.5 SSE 6 7 3 4 1020.9 1021.1 0.0
30/08:00pm 10.7 8.7 6.9 77 1.8 S 7 7 4 4 1020.8 1021.0 0.0
30/07:30pm 11.3 9.4 6.7 73 2.2 SE 6 6 3 3 1020.4 1020.6 0.0
30/07:00pm 11.9 10.0 6.5 69 2.6 SE 6 7 3 4 1020.2 1020.5 0.0
30/06:30pm 12.5 10.3 6.2 65 3.0 S 7 7 4 4 1020.1 1020.4 0.0
30/06:00pm 12.4 10.3 5.6 63 3.2 WNW 6 7 3 4 1019.8 1020.1 0.0
30/05:30pm 12.6 10.6 6.4 66 3.0 WNW 6 6 3 3 1019.9 1020.2 0.0
30/05:00pm 14.1 12.5 6.5 60 3.7 NW 4 7 2 4 1020.0 1020.3 0.0
30/04:30pm 14.7 12.7 6.3 57 4.1 SSW 6 9 3 5 1020.1 1020.4 0.0
30/04:00pm 15.2 13.8 5.7 53 4.6 W 2 9 1 5 1020.1 1020.4 0.0
30/03:30pm 15.8 13.9 6.5 54 4.6 NW 6 9 3 5 1020.5 1020.7 0.0
30/03:00pm 15.3 13.4 6.8 57 4.2 NNW 6 9 3 5 1020.6 1020.8 0.0
30/02:30pm 14.8 12.8 6.4 57 4.1 S 6 9 3 5 1020.9 1021.1 0.0
30/02:00pm 14.3 12.2 5.8 56 4.1 SW 6 9 3 5 1021.2 1021.4 0.0
30/01:30pm 14.7 13.2 7.0 60 3.8 W 4 7 2 4 1021.6 1021.8 0.0
30/01:00pm 13.5 11.3 6.0 60 3.6 SSE 7 9 4 5 1021.8 1022.0 0.0
30/12:30pm 13.1 10.4 5.7 61 3.5 ESE 9 13 5 7 1022.2 1022.4 0.0
30/12:00pm 12.7 10.0 5.5 61 3.4 E 9 13 5 7 1022.9 1023.2 0.0
30/11:30am 12.2 10.0 5.1 62 3.3 E 6 9 3 5 1023.5 1023.8 0.0
30/11:00am 11.7 9.4 4.7 62 3.2 ENE 6 9 3 5 1024.0 1024.3 0.0
30/10:30am 11.0 8.5 4.6 64 2.9 E 7 11 4 6 1024.4 1024.6 0.0
30/10:00am 10.4 6.7 4.7 68 2.6 E 13 17 7 9 1024.4 1024.6 0.0
30/09:30am 9.5 6.3 4.9 73 2.1 E 11 15 6 8 1024.6 1024.8 0.0
30/09:00am 8.1 6.9 4.5 78 1.6 CALM 0 6 0 3 1024.7 1024.9 0.2
30/08:30am 5.7 4.0 3.8 87 0.8 SW 2 6 1 3 1024.7 1024.9 0.2
30/08:00am 4.5 2.6 3.0 90 0.6 ENE 2 6 1 3 1024.6 1024.8 0.2
30/07:30am 4.1 1.4 2.4 89 0.7 ENE 6 7 3 4 1024.0 1024.3 0.2
30/07:00am 3.3 -0.1 2.0 91 0.5 NE 9 11 5 6 1023.6 1023.9 0.2
30/06:30am 3.4 0.0 2.1 91 0.5 ENE 9 9 5 5 1023.3 1023.6 0.2
30/06:00am 3.7 0.4 2.5 92 0.5 ENE 9 11 5 6 1023.2 1023.5 0.2
30/05:30am 3.4 -0.3 2.4 93 0.4 E 11 11 6 6 1023.2 1023.5 0.2
30/05:00am 3.7 0.4 2.7 93 0.4 ENE 9 11 5 6 1023.3 1023.6 0.0
30/04:30am 4.1 0.5 2.9 92 0.5 ENE 11 11 6 6 1023.3 1023.6 0.0
30/04:00am 4.0 0.8 3.0 93 0.4 ENE 9 11 5 6 1023.4 1023.7 0.0
30/03:30am 3.7 0.5 3.0 95 0.3 E 9 11 5 6 1023.7 1024.0 0.0
30/03:00am 3.5 0.3 2.8 95 0.3 E 9 9 5 5 1023.7 1024.0 0.0
30/02:30am 3.5 0.6 2.8 95 0.3 E 7 9 4 5 1023.7 1024.0 0.0
30/02:00am 3.6 0.3 2.6 93 0.4 E 9 11 5 6 1023.7 1024.0 0.0
30/01:30am 3.8 0.6 2.8 93 0.4 ESE 9 11 5 6 1024.0 1024.3 0.0
30/01:00am 4.1 0.5 2.9 92 0.5 E 11 13 6 7 1024.1 1024.4 0.0
30/12:30am 4.6 1.8 3.2 91 0.6 ESE 7 9 4 5 1024.7 1024.9 0.0
30/12:00am 5.5 2.4 3.6 87 0.8 ESE 9 9 5 5 1024.6 1024.8 0.0
 
Date/Time
EST
Temp
°C
App
Temp
°C
Dew
Point
°C
Rel
Hum
%
Delta-T
°C
Wind Press
QNH
hPa
Press
MSL
hPa
Rain since
9am
mm
Dir  Spd
km/h
Gust
km/h
Spd
kts
Gust
kts
29/11:30pm 5.6 2.5 3.5 86 0.9 ESE 9 11 5 6 1024.5 1024.7 0.0
29/11:00pm 7.1 4.8 4.6 84 1.1 ESE 6 7 3 4 1024.5 1024.7 0.0
29/10:30pm 7.6 5.0 4.4 80 1.4 SSE 7 9 4 5 1024.2 1024.5 0.0
29/10:00pm 7.2 4.7 4.7 84 1.1 SE 7 7 4 4 1024.5 1024.7 0.0
29/09:33pm 7.0 4.5 4.7 85 1.0 SE 7 7 4 4 1024.5 1024.7 0.0
29/09:30pm 6.8 4.3 4.5 85 1.0 SE 7 7 4 4 1024.5 1024.7 0.0
29/09:17pm 7.1 4.5 4.4 83 1.2 S 7 9 4 5 1024.6 1024.8 0.0
29/09:00pm 7.9 5.4 4.5 79 1.5 SSW 7 9 4 5 1024.5 1024.7 0.0
29/08:30pm 9.1 6.2 4.4 72 2.1 SSW 9 9 5 5 1024.4 1024.6 0.0
29/08:00pm 9.2 6.6 4.3 71 2.2 SW 7 9 4 5 1024.2 1024.5 0.0
29/07:30pm 7.5 5.2 4.6 82 1.3 SW 6 7 3 4 1023.9 1024.2 0.0
29/07:00pm 10.1 7.8 4.6 68 2.5 SW 6 7 3 4 1023.7 1024.0 0.0
29/06:30pm 10.2 7.9 4.9 69 2.4 SW 6 6 3 3 1023.4 1023.7 0.0
29/06:00pm 10.4 8.0 5.2 70 2.4 WSW 7 7 4 4 1023.2 1023.5 0.0
29/05:30pm 11.9 9.5 5.2 63 3.1 SW 7 11 4 6 1023.1 1023.4 0.0
29/05:00pm 12.4 9.2 5.1 61 3.4 SW 11 15 6 8 1023.1 1023.4 0.0
29/04:30pm 13.5 10.3 5.2 57 3.9 WSW 11 15 6 8 1023.0 1023.3 0.0
29/04:00pm 13.6 10.3 4.8 55 4.1 SW 11 17 6 9 1023.1 1023.4 0.0
29/03:30pm 14.0 10.5 5.4 56 4.1 SW 13 19 7 10 1023.1 1023.4 0.0
29/03:00pm 13.8 10.9 4.8 54 4.2 SSW 9 15 5 8 1023.1 1023.4 0.0
29/02:30pm 13.4 9.8 4.8 56 4.0 WSW 13 19 7 10 1023.3 1023.6 0.0
29/02:00pm 13.4 9.4 4.8 56 4.0 SW 15 20 8 11 1023.6 1023.9 0.0
29/01:30pm 13.3 9.7 5.0 57 3.9 SW 13 20 7 11 1024.0 1024.3 0.0
29/01:00pm 12.8 9.9 4.6 57 3.8 WSW 9 17 5 9 1024.6 1024.8 0.0
29/12:30pm 12.5 9.6 4.4 58 3.7 SSE 9 15 5 8 1025.0 1025.2 0.0
29/12:00pm 11.8 8.9 4.6 61 3.3 SSE 9 17 5 9 1025.7 1026.0 0.0
29/11:30am 11.1 7.6 3.7 60 3.3 ESE 11 19 6 10 1026.3 1026.6 0.0
29/11:00am 11.1 7.7 4.2 62 3.1 S 11 17 6 9 1026.8 1027.1 0.0
29/10:30am 10.4 6.5 3.6 63 3.0 S 13 22 7 12 1027.2 1027.5 0.0
29/10:00am 9.7 5.8 3.6 66 2.7 S 13 22 7 12 1027.5 1027.8 0.0
29/09:30am 8.7 4.0 3.4 69 2.3 SSE 17 24 9 13 1027.5 1027.8 0.0
29/09:00am 7.9 4.9 4.0 76 1.7 SSE 9 15 5 8 1027.4 1027.7 0.0
29/08:30am 6.3 3.8 3.7 83 1.1 SE 6 9 3 5 1027.2 1027.5 0.0
29/08:00am 4.4 1.6 2.9 90 0.6 SSE 7 13 4 7 1027.0 1027.3 0.0
29/07:30am 3.4 0.1 2.7 95 0.3 S 9 11 5 6 1027.0 1027.3 0.0
29/07:10am 2.7 -0.3 2.2 96 0.2 S 7 9 4 5 1027.0 1027.3 0.0
29/07:00am 2.9 0.0 2.4 96 0.2 S 7 9 4 5 1026.9 1027.2 0.0
29/06:30am 3.7 0.9 3.2 97 0.2 SSE 7 9 4 5 1026.5 1026.8 0.0
29/06:00am 3.8 1.0 3.3 97 0.2 SSE 7 9 4 5 1026.4 1026.7 0.0
29/05:35am 3.2 0.4 3.0 99 0.1 SSE 7 9 4 5 1026.2 1026.5 0.0
29/05:30am 3.4 0.6 2.9 97 0.2 SSE 7 9 4 5 1026.2 1026.5 0.0
29/05:04am 2.9 0.2 2.4 96 0.2 S 6 7 3 4 1026.2 1026.5 0.0
29/05:00am 2.9 0.2 2.4 96 0.2 S 6 7 3 4 1026.2 1026.5 0.0
29/04:30am 3.2 0.3 2.5 95 0.3 S 7 9 4 5 1026.1 1026.4 0.0
29/04:00am 4.2 1.4 3.2 93 0.4 S 7 9 4 5 1026.0 1026.3 0.0
29/03:30am 4.5 1.8 3.5 93 0.4 S 7 9 4 5 1026.0 1026.3 0.0
29/03:00am 4.9 2.2 3.7 92 0.5 SSE 7 9 4 5 1026.1 1026.4 0.0
29/02:30am 5.2 2.1 3.8 91 0.6 SE 9 11 5 6 1026.1 1026.4 0.0
29/02:00am 4.9 1.8 3.7 92 0.5 SE 9 11 5 6 1026.0 1026.3 0.0
29/01:30am 4.5 1.4 3.5 93 0.4 ESE 9 9 5 5 1026.0 1026.3 0.0
29/01:00am 5.0 2.3 3.8 92 0.5 SE 7 9 4 5 1026.3 1026.6 0.0
29/12:30am 5.6 2.6 4.0 89 0.7 SE 9 9 5 5 1026.6 1026.9 0.0
29/12:00am 5.4 2.3 3.7 89 0.7 ESE 9 11 5 6 1026.7 1027.0 0.0
 
Date/Time
EST
Temp
°C
App
Temp
°C
Dew
Point
°C
Rel
Hum
%
Delta-T
°C
Wind Press
QNH
hPa
Press
MSL
hPa
Rain since
9am
mm
Dir  Spd
km/h
Gust
km/h
Spd
kts
Gust
kts
28/11:30pm 6.8 3.9 4.5 85 1.0 SE 9 15 5 8 1026.9 1027.2 0.0
28/11:00pm 7.0 4.1 4.5 84 1.1 SSE 9 15 5 8 1027.1 1027.4 0.0
28/10:30pm 7.0 4.1 4.5 84 1.1 SSE 9 15 5 8 1027.2 1027.5 0.0
28/10:00pm 7.0 3.7 4.7 85 1.0 S 11 17 6 9 1027.3 1027.6 0.0
28/09:30pm 7.4 4.1 4.4 81 1.3 S 11 15 6 8 1027.3 1027.6 0.0
28/09:00pm 7.4 4.9 4.7 83 1.2 SSW 7 9 4 5 1027.2 1027.5 0.0
28/08:30pm 7.9 5.0 4.7 80 1.4 SW 9 9 5 5 1027.2 1027.5 0.0
28/08:00pm 8.5 6.0 4.7 77 1.7 SW 7 7 4 4 1027.0 1027.3 0.0
28/07:30pm 7.1 5.1 4.6 84 1.1 S 4 6 2 3 1026.8 1027.1 0.0
28/07:00pm 10.6 8.1 4.9 68 2.6 S 7 9 4 5 1026.4 1026.7 0.0
28/06:30pm 10.8 8.5 4.9 67 2.7 SSE 6 7 3 4 1026.3 1026.6 0.0
28/06:00pm 11.3 9.0 4.7 64 3.0 S 6 7 3 4 1026.0 1026.3 0.0
28/05:30pm 12.2 9.9 4.8 60 3.4 SSW 6 9 3 5 1026.0 1026.3 0.0

Other Formats:

Comma delimited format used in spreadsheet applications
http://www.bom.gov.au/fwo/IDN60801/IDN60801.94711.axf

JavaScript Object Notation format (JSON) in row-major order
http://www.bom.gov.au/fwo/IDN60801/IDN60801.94711.json